Clyde, North Carolina
Current Conditions -  °F | °C
As of 7:06 AM on Monday 29 Dec 2014 (Local Time) from KAVL Reporting Station
Haze Haze  
Wind Chill: 49°   Ceiling: 11000
Heat Index: 49°   Visibility: 2mi
Dew Point: 48°   Wind: 0mph
Humidity: 97%   Direction: NA
Pressure: 30.06"   Gusts: NA
Location:  35.53°N, 82.91°W
Report Text: KAVL 291206Z 00000KT 2SM BR SCT003 OVC110 09/09 A3006 RMK AO2 RAE1155 P0000 T00940089
Loading
Personal Weather Stations






























Interactive Weather Map New forecast layout! Learn more

10-Day Weather Forecast

Advertisements
Track Severe Weather on mobile